Time;durP1;ratioP1;P1;durP2;ratioP2;P2;SDS_P1;SDS_P2;PMS_P1;PMS_P2;Temp;Humidity;BMP_temperature;BMP_pressure;BME280_temperature;BME280_humidity;BME280_pressure;Samples;Min_cycle;Max_cycle;Signal;HPM_P1;HPM_P2
2023/07/15 00:02:17;;;;;;;12.20;5.97;;;;;;;-142.57;100.00;115900.28;6216479;23;20372;-85
2023/07/15 00:04:42;;;;;;;13.32;6.45;;;;;;;-142.57;100.00;115900.28;6216392;23;20104;-84
2023/07/15 00:07:08;;;;;;;17.55;6.22;;;;;;;-142.57;100.00;115900.28;6216430;23;20431;-86
2023/07/15 00:09:35;;;;;;;16.73;5.85;;;;;;;-142.57;100.00;115900.28;6217312;23;20067;-85
2023/07/15 00:12:01;;;;;;;11.63;6.07;;;;;;;-142.57;100.00;115900.28;6217147;23;20008;-85
2023/07/15 00:14:28;;;;;;;12.35;5.45;;;;;;;-142.57;100.00;115900.28;6216644;23;20020;-86
2023/07/15 00:16:55;;;;;;;14.75;5.70;;;;;;;-142.57;100.00;115900.28;6217359;23;20012;-84
2023/07/15 00:19:22;;;;;;;11.07;5.50;;;;;;;-142.57;100.00;115900.28;6215591;23;20096;-86
2023/07/15 00:21:48;;;;;;;11.50;5.63;;;;;;;-142.57;100.00;115900.28;6216137;23;20072;-85
2023/07/15 00:24:14;;;;;;;10.38;5.35;;;;;;;-142.57;100.00;115900.28;6215572;23;20333;-85
2023/07/15 00:26:40;;;;;;;13.43;5.47;;;;;;;-142.57;100.00;115900.28;6215330;23;20040;-85
2023/07/15 00:29:08;;;;;;;19.17;5.93;;;;;;;-142.57;100.00;115900.28;6215110;23;20023;-86
2023/07/15 00:31:35;;;;;;;11.88;6.20;;;;;;;-142.57;100.00;115900.28;6215261;23;20044;-84
2023/07/15 00:34:02;;;;;;;13.32;6.10;;;;;;;-142.57;100.00;115900.28;6215172;23;20001;-85
2023/07/15 00:36:31;;;;;;;13.70;6.18;;;;;;;-142.57;100.00;115900.28;6215241;23;20020;-85
2023/07/15 00:38:56;;;;;;;12.25;5.95;;;;;;;-142.57;100.00;115900.28;6215549;23;20040;-84
2023/07/15 00:41:26;;;;;;;12.00;5.95;;;;;;;-142.57;100.00;115900.28;6215272;23;20106;-86
2023/07/15 00:43:56;;;;;;;12.77;6.50;;;;;;;-142.57;100.00;115900.28;6213792;23;20009;-86
2023/07/15 00:46:22;;;;;;;11.23;6.43;;;;;;;-142.57;100.00;115900.28;6215334;23;20028;-83
2023/07/15 00:49:07;;;;;;;13.93;5.70;;;;;;;-142.57;100.00;115900.28;6218803;23;20032;-84
2023/07/15 00:51:37;;;;;;;11.35;6.00;;;;;;;-142.57;100.00;115900.28;6217453;23;20016;-87
2023/07/15 00:54:03;;;;;;;10.15;6.07;;;;;;;-142.57;100.00;115900.28;6215316;23;20075;-86
2023/07/15 00:56:32;;;;;;;12.88;6.05;;;;;;;-142.57;100.00;115900.28;6213723;23;20012;-85
2023/07/15 00:58:58;;;;;;;9.77;5.90;;;;;;;-142.57;100.00;115900.28;6213670;23;20000;-86
2023/07/15 01:01:24;;;;;;;15.57;6.32;;;;;;;-142.57;100.00;115900.28;6215163;23;20317;-84
2023/07/15 01:03:50;;;;;;;15.00;6.22;;;;;;;-142.57;100.00;115900.28;6215145;23;20096;-86
2023/07/15 01:06:15;;;;;;;9.25;5.47;;;;;;;-142.57;100.00;115900.28;6213462;23;20013;-85
2023/07/15 01:08:42;;;;;;;14.43;5.68;;;;;;;-142.57;100.00;115900.28;6215028;23;20013;-83
2023/07/15 01:11:09;;;;;;;14.32;6.18;;;;;;;-142.57;100.00;115900.28;6214996;23;20075;-84
2023/07/15 01:13:35;;;;;;;10.77;6.32;;;;;;;-142.57;100.00;115900.28;6215158;23;20513;-84
2023/07/15 01:16:00;;;;;;;12.60;6.28;;;;;;;-142.57;100.00;115900.28;6215033;23;20044;-84
2023/07/15 01:18:27;;;;;;;11.50;6.05;;;;;;;-142.57;100.00;115900.28;6215119;23;20463;-83
2023/07/15 01:20:56;;;;;;;11.95;6.38;;;;;;;-142.57;100.00;115900.28;6215529;23;20448;-84
2023/07/15 01:23:22;;;;;;;15.48;6.90;;;;;;;-142.57;100.00;115900.28;6215022;23;20071;-83
2023/07/15 01:25:47;;;;;;;11.05;5.88;;;;;;;-142.57;100.00;115900.28;6215135;23;20387;-83
2023/07/15 01:28:13;;;;;;;15.82;6.25;;;;;;;-142.57;100.00;115900.28;6215125;23;20336;-85
2023/07/15 01:30:39;;;;;;;13.98;6.32;;;;;;;-142.57;100.00;115900.28;6215071;23;20096;-85
2023/07/15 01:33:04;;;;;;;15.07;6.38;;;;;;;-142.57;100.00;115900.28;6215281;23;20008;-85
2023/07/15 01:35:29;;;;;;;14.55;6.15;;;;;;;-142.57;100.00;115900.28;6213595;23;20013;-86
2023/07/15 01:37:55;;;;;;;12.77;5.82;;;;;;;-142.57;100.00;115900.28;6214862;23;20336;-85
2023/07/15 01:40:21;;;;;;;11.18;5.07;;;;;;;-142.57;100.00;115900.28;6239102;23;20013;-85
2023/07/15 01:42:46;;;;;;;12.75;5.53;;;;;;;-142.57;100.00;115900.28;6216866;23;20039;-85
2023/07/15 01:45:12;;;;;;;11.48;5.43;;;;;;;-142.57;100.00;115900.28;6217200;23;20036;-85
2023/07/15 01:47:37;;;;;;;10.60;5.82;;;;;;;-142.57;100.00;115900.28;6216751;23;20339;-86
2023/07/15 01:50:05;;;;;;;11.43;5.80;;;;;;;-142.57;100.00;115900.28;6215307;23;20021;-84
2023/07/15 01:52:32;;;;;;;10.82;5.75;;;;;;;-142.57;100.00;115900.28;6215333;23;20009;-85
2023/07/15 01:54:58;;;;;;;20.42;6.18;;;;;;;-142.57;100.00;115900.28;6190594;23;20027;-84
2023/07/15 01:57:29;;;;;;;13.27;5.50;;;;;;;-142.57;100.00;115900.28;6215266;23;20004;-84
2023/07/15 01:59:57;;;;;;;15.70;6.20;;;;;;;-142.57;100.00;115900.28;6215108;23;20041;-83
2023/07/15 02:02:24;;;;;;;13.88;5.78;;;;;;;-142.57;100.00;115900.28;6215619;23;20016;-84
2023/07/15 02:04:50;;;;;;;9.77;5.43;;;;;;;-142.57;100.00;115900.28;6216849;23;20012;-86
2023/07/15 02:07:15;;;;;;;21.63;6.65;;;;;;;-142.57;100.00;115900.28;6219443;23;20454;-82
2023/07/15 02:09:41;;;;;;;16.80;5.32;;;;;;;-142.57;100.00;115900.28;6224864;23;20420;-83
2023/07/15 02:12:07;;;;;;;12.35;6.07;;;;;;;-142.57;100.00;115900.28;6216889;23;20008;-84
2023/07/15 02:14:32;;;;;;;12.52;6.28;;;;;;;-142.57;100.00;115900.28;6215004;23;20472;-83
2023/07/15 02:16:58;;;;;;;11.80;6.30;;;;;;;-142.57;100.00;115900.28;6215018;23;20105;-83
2023/07/15 02:19:25;;;;;;;11.05;5.82;;;;;;;-142.57;100.00;115900.28;6214972;23;20008;-83
2023/07/15 02:21:51;;;;;;;12.57;5.70;;;;;;;-142.57;100.00;115900.28;6216745;23;20017;-84
2023/07/15 02:24:16;;;;;;;13.82;6.38;;;;;;;-142.57;100.00;115900.28;6214814;23;20008;-84
2023/07/15 02:26:42;;;;;;;15.98;6.00;;;;;;;-142.57;100.00;115900.28;6216195;23;20126;-84
2023/07/15 02:29:08;;;;;;;12.85;5.65;;;;;;;-142.57;100.00;115900.28;6214967;23;20435;-85
2023/07/15 02:31:34;;;;;;;9.50;5.15;;;;;;;-142.57;100.00;115900.28;6216437;23;20127;-83
2023/07/15 02:34:00;;;;;;;18.40;5.18;;;;;;;-142.57;100.00;115900.28;6217201;23;20027;-83
2023/07/15 02:36:25;;;;;;;13.55;5.65;;;;;;;-142.57;100.00;115900.28;6216399;23;20016;-83
2023/07/15 02:38:51;;;;;;;9.32;4.88;;;;;;;-142.57;100.00;115900.28;6214889;23;20012;-82
2023/07/15 02:41:17;;;;;;;14.32;5.28;;;;;;;-142.57;100.00;115900.28;6215037;23;20012;-84
2023/07/15 02:43:42;;;;;;;10.77;4.97;;;;;;;-142.57;100.00;115900.28;6216957;23;20364;-84
2023/07/15 02:46:08;;;;;;;8.48;4.75;;;;;;;-142.57;100.00;115900.28;6216305;23;20015;-83
2023/07/15 02:48:33;;;;;;;12.15;5.05;;;;;;;-142.57;100.00;115900.28;6214243;23;20422;-84
2023/07/15 02:50:59;;;;;;;10.77;5.32;;;;;;;-142.57;100.00;115900.28;6216463;23;20012;-84
2023/07/15 02:53:24;;;;;;;14.45;5.22;;;;;;;-142.57;100.00;115900.28;6214112;23;20084;-82
2023/07/15 02:55:50;;;;;;;10.90;5.40;;;;;;;-142.57;100.00;115900.28;6214134;23;20009;-84
2023/07/15 02:58:17;;;;;;;14.90;5.53;;;;;;;-142.57;100.00;115900.28;6189885;23;20012;-83
2023/07/15 03:00:43;;;;;;;11.55;5.93;;;;;;;-142.57;100.00;115900.28;6216051;23;20009;-85
2023/07/15 03:03:10;;;;;;;10.23;5.93;;;;;;;-142.57;100.00;115900.28;6215941;23;20012;-84
2023/07/15 03:05:36;;;;;;;15.73;6.53;;;;;;;-142.57;100.00;115900.28;6216102;23;20084;-83
2023/07/15 03:08:02;;;;;;;12.98;6.90;;;;;;;-142.57;100.00;115900.28;6214066;23;20013;-84
2023/07/15 03:10:27;;;;;;;17.90;7.65;;;;;;;-142.57;100.00;115900.28;6215814;23;20020;-83
2023/07/15 03:12:53;;;;;;;18.13;7.72;;;;;;;-142.57;100.00;115900.28;6215782;23;20429;-85
2023/07/15 03:15:19;;;;;;;12.77;7.65;;;;;;;-142.57;100.00;115900.28;6213958;23;20508;-84
2023/07/15 03:17:46;;;;;;;11.35;6.25;;;;;;;-142.57;100.00;115900.28;6215460;23;20012;-84
2023/07/15 03:20:23;;;;;;;15.77;7.10;;;;;;;-142.57;100.00;115900.28;6215597;23;20028;-84
2023/07/15 03:22:50;;;;;;;15.82;7.55;;;;;;;-142.57;100.00;115900.28;6215570;23;20078;-84
2023/07/15 03:25:16;;;;;;;13.98;6.97;;;;;;;-142.57;100.00;115900.28;6216059;23;20095;-83
2023/07/15 03:27:42;;;;;;;10.80;6.03;;;;;;;-142.57;100.00;115900.28;6225160;23;20017;-82
2023/07/15 03:30:09;;;;;;;15.68;5.97;;;;;;;-142.57;100.00;115900.28;6219903;23;20070;-84
2023/07/15 03:32:36;;;;;;;9.45;5.15;;;;;;;-142.57;100.00;115900.28;6214196;23;20054;-83
2023/07/15 03:35:05;;;;;;;11.68;5.03;;;;;;;-142.57;100.00;115900.28;6215524;23;20012;-83
2023/07/15 03:37:33;;;;;;;11.52;4.68;;;;;;;-142.57;100.00;115900.28;6215907;23;20031;-84
2023/07/15 03:39:59;;;;;;;14.20;4.88;;;;;;;-142.57;100.00;115900.28;6213944;23;20045;-85
2023/07/15 03:42:26;;;;;;;12.63;5.07;;;;;;;-142.57;100.00;115900.28;6222389;23;20059;-84
2023/07/15 03:44:52;;;;;;;11.43;5.30;;;;;;;-142.57;100.00;115900.28;6215553;23;20357;-82
2023/07/15 03:47:18;;;;;;;12.63;4.53;;;;;;;-142.57;100.00;115900.28;6215760;23;20119;-83
2023/07/15 03:49:44;;;;;;;12.43;4.90;;;;;;;-142.57;100.00;115900.28;6215345;23;20055;-85
2023/07/15 03:52:10;;;;;;;18.67;5.50;;;;;;;-142.57;100.00;115900.28;6214000;23;20009;-82
2023/07/15 03:54:36;;;;;;;11.90;4.88;;;;;;;-142.57;100.00;115900.28;6216756;23;20066;-85
2023/07/15 03:57:02;;;;;;;8.15;5.05;;;;;;;-142.57;100.00;115900.28;6215504;23;20001;-83
2023/07/15 03:59:28;;;;;;;12.35;5.28;;;;;;;-142.57;100.00;115900.28;6215511;23;20009;-83
2023/07/15 04:01:54;;;;;;;11.25;5.15;;;;;;;-142.57;100.00;115900.28;6215845;23;20075;-85
2023/07/15 04:04:19;;;;;;;10.45;5.45;;;;;;;-142.57;100.00;115900.28;6215305;23;20005;-85
2023/07/15 04:06:45;;;;;;;11.25;5.68;;;;;;;-142.57;100.00;115900.28;6215468;23;20358;-83
2023/07/15 04:09:12;;;;;;;11.13;5.63;;;;;;;-142.57;100.00;115900.28;6215318;23;20005;-83
2023/07/15 04:11:39;;;;;;;7.28;4.90;;;;;;;-142.57;100.00;115900.28;6213831;23;20008;-83
2023/07/15 04:14:04;;;;;;;10.57;5.88;;;;;;;-142.57;100.00;115900.28;6215409;23;20090;-82
2023/07/15 04:16:30;;;;;;;11.52;6.00;;;;;;;-142.57;100.00;115900.28;6215137;23;20036;-82
2023/07/15 04:18:55;;;;;;;13.85;5.45;;;;;;;-142.57;100.00;115900.28;6215297;23;20004;-83
2023/07/15 04:21:21;;;;;;;11.93;5.32;;;;;;;-142.57;100.00;115900.28;6213599;23;20028;-83
2023/07/15 04:23:47;;;;;;;12.13;5.35;;;;;;;-142.57;100.00;115900.28;6214959;23;20008;-80
2023/07/15 04:26:19;;;;;;;13.23;5.10;;;;;;;-142.57;100.00;115900.28;6214946;23;20040;-82
2023/07/15 04:28:44;;;;;;;11.93;5.07;;;;;;;-142.57;100.00;115900.28;6215293;23;20019;-83
2023/07/15 04:31:10;;;;;;;10.63;5.30;;;;;;;-142.57;100.00;115900.28;6215154;23;20004;-86
2023/07/15 04:33:36;;;;;;;14.30;5.43;;;;;;;-142.57;100.00;115900.28;6215222;23;20016;-84
2023/07/15 04:36:02;;;;;;;12.13;5.43;;;;;;;-142.57;100.00;115900.28;6215502;23;20012;-82
2023/07/15 04:38:28;;;;;;;10.13;4.60;;;;;;;-142.57;100.00;115900.28;6215229;23;20383;-84
2023/07/15 04:40:55;;;;;;;12.80;5.15;;;;;;;-142.57;100.00;115900.28;6215477;23;20448;-84
2023/07/15 04:43:22;;;;;;;14.27;5.28;;;;;;;-142.57;100.00;115900.28;6214205;23;20078;-86
2023/07/15 04:45:49;;;;;;;15.60;5.35;;;;;;;-142.57;100.00;115900.28;6215918;23;20009;-85
2023/07/15 04:48:14;;;;;;;8.98;5.53;;;;;;;-142.57;100.00;115900.28;6234233;23;20096;-84
2023/07/15 04:50:40;;;;;;;15.40;5.10;;;;;;;-142.57;100.00;115900.28;6216407;23;20071;-86
2023/07/15 04:53:06;;;;;;;11.35;5.20;;;;;;;-142.57;100.00;115900.28;6216151;23;20012;-85
2023/07/15 04:55:31;;;;;;;10.25;5.18;;;;;;;-142.57;100.00;115900.28;6215893;23;20443;-86
2023/07/15 04:57:57;;;;;;;13.95;5.68;;;;;;;-142.57;100.00;115900.28;6213781;23;20016;-85
2023/07/15 05:00:22;;;;;;;13.38;5.78;;;;;;;-142.57;100.00;115900.28;6216267;23;20015;-85
2023/07/15 05:02:49;;;;;;;15.95;5.32;;;;;;;-142.57;100.00;115900.28;6215568;23;20290;-87
2023/07/15 05:05:15;;;;;;;11.88;5.70;;;;;;;-142.57;100.00;115900.28;6217566;23;20036;-88
2023/07/15 05:07:41;;;;;;;8.82;5.20;;;;;;;-142.57;100.00;115900.28;6218745;23;20301;-85
2023/07/15 05:10:07;;;;;;;9.60;5.57;;;;;;;-142.57;100.00;115900.28;6219174;23;20009;-86
2023/07/15 05:12:33;;;;;;;10.65;5.63;;;;;;;-142.57;100.00;115900.28;6219164;23;20505;-89
2023/07/15 05:14:58;;;;;;;8.90;5.13;;;;;;;-142.57;100.00;115900.28;6194235;23;20020;-87
2023/07/15 05:17:25;;;;;;;11.80;5.45;;;;;;;-142.57;100.00;115900.28;6221781;23;20016;-88
2023/07/15 05:19:50;;;;;;;12.13;5.75;;;;;;;-142.57;100.00;115900.28;6221889;23;20383;-86
2023/07/15 05:22:18;;;;;;;17.42;6.35;;;;;;;-142.57;100.00;115900.28;6219209;23;20008;-88
2023/07/15 05:24:44;;;;;;;8.25;5.40;;;;;;;-142.57;100.00;115900.28;6219573;23;20355;-87
2023/07/15 05:27:10;;;;;;;15.10;6.20;;;;;;;-142.57;100.00;115900.28;6219156;23;20008;-87
2023/07/15 05:29:36;;;;;;;14.00;6.50;;;;;;;-142.57;100.00;115900.28;6218452;23;20011;-87
2023/07/15 05:32:02;;;;;;;16.05;7.43;;;;;;;-142.57;100.00;115900.28;6219258;23;20004;-85
2023/07/15 05:34:31;;;;;;;16.30;6.55;;;;;;;-142.57;100.00;115900.28;6219684;23;20016;-87
2023/07/15 05:36:59;;;;;;;13.70;5.80;;;;;;;-142.57;100.00;115900.28;6223805;23;20012;-91
2023/07/15 05:39:25;;;;;;;18.20;6.47;;;;;;;-142.57;100.00;115900.28;6226863;23;20016;-87
2023/07/15 05:41:50;;;;;;;20.67;7.07;;;;;;;-142.57;99.03;115900.28;6229900;23;20009;-87
2023/07/15 05:44:16;;;;;;;20.30;7.50;;;;;;;-142.57;98.91;115900.28;6222091;23;20001;-86
2023/07/15 05:46:41;;;;;;;14.50;7.80;;;;;;;-142.57;98.22;115900.28;6220187;23;20038;-85
2023/07/15 05:49:06;;;;;;;11.85;7.22;;;;;;;-142.57;99.11;115900.28;6219458;23;20008;-87
2023/07/15 05:51:35;;;;;;;17.30;7.32;;;;;;;-142.57;96.40;115900.28;6222847;23;20021;-87
2023/07/15 05:54:01;;;;;;;20.50;8.20;;;;;;;-142.57;96.56;115900.28;6195310;23;20012;-86
2023/07/15 05:56:26;;;;;;;16.00;8.57;;;;;;;-142.57;96.23;115900.28;6222971;23;20016;-88
2023/07/15 05:58:52;;;;;;;23.58;9.80;;;;;;;-142.57;95.79;115900.28;6227724;23;20075;-90
2023/07/15 06:01:19;;;;;;;20.50;9.43;;;;;;;-142.57;95.14;115900.28;6219243;23;20009;-86
2023/07/15 06:03:45;;;;;;;22.35;10.20;;;;;;;-142.57;93.37;115900.28;6221039;23;20088;-88
2023/07/15 06:08:58;;;;;;;21.17;9.73;;;;;;;-142.57;90.47;115900.28;6263909;23;20020;-86
2023/07/15 06:11:23;;;;;;;18.83;9.90;;;;;;;-142.57;89.02;115900.28;6225248;23;20004;-88
2023/07/15 06:13:49;;;;;;;20.90;10.07;;;;;;;-142.57;86.57;115900.28;6255930;23;20043;-89
2023/07/15 06:16:15;;;;;;;20.83;10.70;;;;;;;-142.57;85.08;115900.28;6260260;23;20016;-86
2023/07/15 06:18:41;;;;;;;21.65;9.95;;;;;;;-142.57;83.87;115900.28;6255164;23;20012;-87
2023/07/15 06:21:07;;;;;;;24.30;10.75;;;;;;;-142.57;82.37;115900.28;6230381;23;20027;-88
2023/07/15 06:23:33;;;;;;;22.70;10.65;;;;;;;-142.57;78.90;115900.28;6256053;23;20008;-88
2023/07/15 06:25:59;;;;;;;17.65;9.52;;;;;;;-142.57;78.73;115900.28;6257250;23;20008;-85
2023/07/15 06:28:28;;;;;;;20.77;11.10;;;;;;;-142.57;77.14;115900.28;6226401;23;20071;-86
2023/07/15 06:31:06;;;;;;;22.80;11.13;;;;;;;-142.57;77.80;115900.28;6205447;23;20032;-84
2023/07/15 06:33:34;;;;;;;28.75;10.35;;;;;;;-142.57;75.37;115900.28;6230785;23;20440;-87
2023/07/15 06:36:03;;;;;;;18.58;10.52;;;;;;;-142.57;73.76;115900.28;6265812;23;20019;-86
2023/07/15 06:38:29;;;;;;;22.55;10.50;;;;;;;-142.57;75.29;115900.28;6212116;23;20048;-85
2023/07/15 06:40:58;;;;;;;24.38;11.05;;;;;;;-142.57;75.50;115900.28;6227849;23;20016;-86
2023/07/15 06:43:24;;;;;;;22.00;10.80;;;;;;;-142.57;74.35;115900.28;6253266;23;20008;-88
2023/07/15 06:45:50;;;;;;;22.25;11.00;;;;;;;-142.57;73.53;115900.28;6254552;23;20094;-91
2023/07/15 06:48:19;;;;;;;22.05;10.55;;;;;;;-142.57;70.94;115900.28;6265436;23;20019;-90
2023/07/15 06:50:44;;;;;;;19.25;10.52;;;;;;;-142.57;69.24;115900.28;6260202;23;20012;-89
2023/07/15 06:53:10;;;;;;;22.35;9.77;;;;;;;-142.57;66.30;115900.28;6254846;23;20015;-88
2023/07/15 06:55:37;;;;;;;22.50;10.48;;;;;;;-142.57;63.34;115900.28;6252355;23;20059;-87
2023/07/15 06:58:03;;;;;;;17.83;9.90;;;;;;;-142.57;64.93;115900.28;6227835;23;20331;-89
2023/07/15 07:00:32;;;;;;;19.65;9.63;;;;;;;-142.57;63.23;115900.28;6226491;23;20008;-87
2023/07/15 07:03:00;;;;;;;20.42;11.20;;;;;;;-142.57;64.02;115900.28;6253229;23;20019;-88
2023/07/15 07:05:27;;;;;;;21.48;10.27;;;;;;;-142.57;59.97;115900.28;6200228;23;20330;-86
2023/07/15 07:07:53;;;;;;;20.83;10.60;;;;;;;-142.57;57.84;115900.28;6250143;23;20450;-90
2023/07/15 07:10:19;;;;;;;22.30;11.55;;;;;;;-142.57;60.99;115900.28;6249144;23;20012;-87
2023/07/15 07:12:46;;;;;;;26.23;13.10;;;;;;;-142.57;60.61;115900.28;6249147;23;20396;-87
2023/07/15 07:15:11;;;;;;;31.88;11.73;;;;;;;-142.57;63.10;115900.28;6248318;23;20016;-85
2023/07/15 07:17:37;;;;;;;28.90;11.98;;;;;;;-142.57;63.62;115900.28;6222472;23;20150;-86
2023/07/15 07:20:06;;;;;;;17.15;11.30;;;;;;;-142.57;63.73;115900.28;6248023;23;20012;-86
2023/07/15 07:22:31;;;;;;;23.27;11.77;;;;;;;-142.57;61.57;115900.28;6247166;23;20007;-85
2023/07/15 07:24:58;;;;;;;24.55;13.15;;;;;;;-142.57;63.08;115900.28;6247195;23;20087;-87
2023/07/15 07:27:24;;;;;;;21.00;12.95;;;;;;;-142.57;64.05;115900.28;6248546;23;20054;-87
2023/07/15 07:29:49;;;;;;;23.38;12.80;;;;;;;-142.57;63.70;115900.28;6250949;23;20016;-89
2023/07/15 07:32:18;;;;;;;21.95;11.88;;;;;;;-142.57;63.56;115900.28;6232212;23;20011;-86
2023/07/15 07:34:47;;;;;;;21.92;11.02;;;;;;;-142.57;59.48;115900.28;6265468;23;20008;-91
2023/07/15 07:37:15;;;;;;;22.10;11.65;;;;;;;-142.57;57.38;115900.28;6207451;23;20019;-89
2023/07/15 07:39:44;;;;;;;23.35;12.15;;;;;;;-142.57;60.23;115900.28;6227526;23;20008;-89
2023/07/15 07:42:09;;;;;;;25.10;13.10;;;;;;;-142.57;59.04;115900.28;6256819;23;20091;-91
2023/07/15 07:44:35;;;;;;;20.35;10.90;;;;;;;-142.57;58.88;115900.28;6225794;23;20324;-86
2023/07/15 07:47:01;;;;;;;21.77;11.90;;;;;;;-142.57;56.16;115900.28;6250890;23;20323;-88
2023/07/15 07:49:27;;;;;;;20.08;11.27;;;;;;;-142.57;55.17;115900.28;6241790;23;20008;-88
2023/07/15 07:51:52;;;;;;;19.27;9.18;;;;;;;-142.57;54.82;115900.28;6251164;23;20012;-91
2023/07/15 07:54:21;;;;;;;20.10;10.90;;;;;;;-142.57;51.63;115900.28;6222870;23;20034;-88
2023/07/15 07:56:46;;;;;;;21.33;10.13;;;;;;;-142.57;52.00;115900.28;6248681;23;20015;-88
2023/07/15 07:59:12;;;;;;;18.23;10.75;;;;;;;-142.57;51.83;115900.28;6249454;23;20048;-88
2023/07/15 08:01:37;;;;;;;18.23;10.57;;;;;;;-142.57;50.92;115900.28;6252266;23;20435;-89
2023/07/15 08:04:33;;;;;;;18.92;12.07;;;;;;;-142.57;53.47;115900.28;6233951;22;20020;-87
2023/07/15 08:07:08;;;;;;;18.45;10.25;;;;;;;-142.57;54.84;115900.28;6215175;23;20066;-89
2023/07/15 08:09:34;;;;;;;20.52;10.32;;;;;;;-142.57;53.37;115900.28;6219836;23;20013;-90
2023/07/15 08:11:59;;;;;;;21.35;8.93;;;;;;;-142.57;51.23;115900.28;6220211;23;20452;-89
2023/07/15 08:14:25;;;;;;;26.02;10.45;;;;;;;-142.57;49.38;115900.28;6218619;23;20503;-92
2023/07/15 08:16:50;;;;;;;16.88;9.35;;;;;;;-142.57;48.78;115900.28;6218836;23;20009;-89
2023/07/15 08:19:20;;;;;;;24.52;9.40;;;;;;;-142.57;47.30;115900.28;6220689;23;20060;-88
2023/07/15 08:21:48;;;;;;;12.73;8.48;;;;;;;-142.57;46.05;115900.28;6220778;23;20023;-89
2023/07/15 08:24:14;;;;;;;16.42;8.98;;;;;;;-142.57;44.73;115900.28;6223120;23;20009;-89
2023/07/15 08:26:39;;;;;;;19.65;9.63;;;;;;;-142.57;46.29;115900.28;6223968;23;20084;-91
2023/07/15 08:29:05;;;;;;;17.60;10.18;;;;;;;-142.57;45.06;115900.28;6197523;23;20040;-88
2023/07/15 08:31:33;;;;;;;19.73;10.60;;;;;;;-142.57;46.82;115900.28;6224219;23;20436;-88
2023/07/15 08:34:03;;;;;;;22.20;10.90;;;;;;;-142.57;46.52;115900.28;6224736;23;20067;-89
2023/07/15 08:36:36;;;;;;;21.70;10.32;;;;;;;-142.57;46.99;115900.28;6224021;23;20274;-89
2023/07/15 08:39:02;;;;;;;20.48;10.15;;;;;;;-142.57;45.05;115900.28;6225527;23;20020;-90
2023/07/15 08:41:28;;;;;;;20.90;11.52;;;;;;;-142.57;45.79;115900.28;6230402;23;20008;-87
2023/07/15 08:43:54;;;;;;;16.83;9.52;;;;;;;-142.57;46.85;115900.28;6230681;23;20024;-88
2023/07/15 08:46:19;;;;;;;17.80;10.68;;;;;;;-142.57;45.73;115900.28;6218375;23;20040;-88
2023/07/15 08:48:45;;;;;;;16.17;8.95;;;;;;;-142.57;44.74;115900.28;6219264;23;20404;-89
2023/07/15 08:51:11;;;;;;;12.35;7.78;;;;;;;-142.57;42.52;115900.28;6221500;23;20432;-89
2023/07/15 08:53:39;;;;;;;23.48;9.43;;;;;;;-142.57;44.62;115900.28;6223359;23;20035;-86
2023/07/15 08:56:05;;;;;;;13.38;9.57;;;;;;;-142.57;45.37;115900.28;6219731;23;20017;-90
2023/07/15 08:58:31;;;;;;;19.25;8.60;;;;;;;-142.57;45.30;115900.28;6220748;23;20051;-88
2023/07/15 09:00:57;;;;;;;18.02;8.80;;;;;;;-142.57;45.73;115900.28;6218123;23;20451;-85
2023/07/15 09:03:23;;;;;;;17.95;9.32;;;;;;;-142.57;43.63;115900.28;6219531;23;20082;-87
2023/07/15 09:05:49;;;;;;;16.05;9.38;;;;;;;-142.57;44.62;115900.28;6218337;23;20385;-84
2023/07/15 09:08:15;;;;;;;19.05;8.63;;;;;;;-142.57;44.97;115900.28;6219367;23;20039;-87
2023/07/15 09:10:51;;;;;;;18.05;9.05;;;;;;;-142.57;43.88;115900.28;6219668;23;20019;-87
2023/07/15 09:13:25;;;;;;;21.50;8.25;;;;;;;-142.57;44.73;115900.28;6221066;23;20043;-90
2023/07/15 09:15:52;;;;;;;16.38;8.77;;;;;;;-142.57;43.78;115900.28;6219636;23;20503;-91
2023/07/15 09:18:19;;;;;;;21.30;8.50;;;;;;;-142.57;41.53;115900.28;6220884;23;20020;-91
2023/07/15 09:20:45;;;;;;;21.48;9.38;;;;;;;-142.57;42.84;115900.28;6217559;23;20012;-85
2023/07/15 09:23:11;;;;;;;18.83;9.07;;;;;;;-142.57;42.78;115900.28;6222981;23;20305;-85
2023/07/15 09:25:37;;;;;;;18.73;10.07;;;;;;;-142.57;42.52;115900.28;6222559;23;20013;-86
2023/07/15 09:28:07;;;;;;;24.80;8.27;;;;;;;-142.57;43.31;115900.28;6222565;23;20020;-88
2023/07/15 09:30:32;;;;;;;17.25;8.77;;;;;;;-142.57;43.10;115900.28;6220826;23;20044;-89
2023/07/15 09:32:58;;;;;;;18.80;10.07;;;;;;;-142.57;43.39;115900.28;6222146;23;20008;-89
2023/07/15 09:35:34;;;;;;;21.88;8.40;;;;;;;-142.57;44.40;115900.28;6221265;23;20015;-90
2023/07/15 09:38:00;;;;;;;24.17;8.32;;;;;;;-142.57;44.67;115900.28;6220706;23;20339;-88
2023/07/15 09:40:28;;;;;;;15.55;8.80;;;;;;;-142.57;43.42;115900.28;6220874;23;20061;-89
2023/07/15 09:42:55;;;;;;;22.10;8.57;;;;;;;-142.57;42.82;115900.28;6220716;23;20507;-89
2023/07/15 09:45:37;;;;;;;17.38;6.10;;;;;;;-142.57;42.09;115900.28;6219982;23;20011;-91
2023/07/15 09:48:06;;;;;;;19.40;6.70;;;;;;;-142.57;42.05;115900.28;6221150;23;20013;-90
2023/07/15 09:50:33;;;;;;;19.63;7.72;;;;;;;-142.57;41.55;115900.28;6220643;23;20008;-87
2023/07/15 09:52:59;;;;;;;15.10;6.30;;;;;;;-142.57;41.61;115900.28;6219521;23;20028;-88
2023/07/15 09:55:29;;;;;;;19.05;6.45;;;;;;;-142.57;42.18;115900.28;6221587;23;20336;-91
2023/07/15 09:58:22;;;;;;;19.13;7.95;;;;;;;-142.57;42.21;115900.28;6221181;23;20023;-89
2023/07/15 10:00:56;;;;;;;20.80;8.93;;;;;;;-142.57;43.20;115900.28;6220098;23;20015;-86
2023/07/15 10:03:51;;;;;;;21.60;8.15;;;;;;;-142.57;43.56;115900.28;6221234;23;20095;-86
2023/07/15 10:06:17;;;;;;;18.67;6.93;;;;;;;-142.57;42.16;115900.28;6222679;23;20019;-88
2023/07/15 10:08:43;;;;;;;13.82;7.07;;;;;;;-142.57;43.58;115900.28;6221638;23;20015;-89
2023/07/15 10:11:13;;;;;;;16.02;6.68;;;;;;;-142.57;44.73;115900.28;6222750;23;20016;-93
2023/07/15 10:13:39;;;;;;;22.77;8.48;;;;;;;-142.57;43.46;115900.28;6219508;23;20020;-89
2023/07/15 10:16:05;;;;;;;15.30;8.45;;;;;;;-142.57;42.85;115900.28;6217911;23;20009;-85
2023/07/15 10:18:31;;;;;;;24.60;6.82;;;;;;;-142.57;43.65;115900.28;6220408;23;20008;-90
2023/07/15 10:21:00;;;;;;;15.40;6.70;;;;;;;-142.57;43.58;115900.28;6194969;23;20008;-88
2023/07/15 10:23:29;;;;;;;13.18;6.20;;;;;;;-142.57;43.22;115900.28;6220517;23;20019;-89
2023/07/15 10:26:08;;;;;;;26.25;7.50;;;;;;;-142.57;43.16;115900.28;6218658;23;20040;-88
2023/07/15 10:28:34;;;;;;;14.48;6.75;;;;;;;-142.57;44.46;115900.28;6219246;23;20035;-88
2023/07/15 10:31:13;;;;;;;13.82;6.82;;;;;;;-142.57;42.22;115900.28;6220780;23;20009;-88
2023/07/15 10:33:54;;;;;;;14.18;7.10;;;;;;;-142.57;42.78;115900.28;6218658;23;20019;-87
2023/07/15 10:36:34;;;;;;;20.20;6.65;;;;;;;-142.57;42.72;115900.28;6220753;23;20049;-88
2023/07/15 10:39:13;;;;;;;16.08;6.88;;;;;;;-142.57;42.28;115900.28;6219488;23;20091;-87
2023/07/15 10:41:47;;;;;;;18.00;6.22;;;;;;;-142.57;41.55;115900.28;6221258;23;20063;-89
2023/07/15 10:44:22;;;;;;;21.10;7.70;;;;;;;-142.57;41.36;115900.28;6228325;23;20032;-88
2023/07/15 10:46:51;;;;;;;18.05;7.55;;;;;;;-142.57;40.83;115900.28;6224586;23;20340;-89
2023/07/15 10:49:18;;;;;;;15.90;7.28;;;;;;;-142.57;40.50;115900.28;6224526;23;20008;-88
2023/07/15 10:51:46;;;;;;;14.43;6.40;;;;;;;-142.57;40.57;115900.28;6230275;23;20051;-88
2023/07/15 10:54:18;;;;;;;17.25;6.38;;;;;;;-142.57;40.82;115900.28;6227992;23;20009;-89
2023/07/15 10:56:44;;;;;;;11.35;6.47;;;;;;;-142.57;40.84;115900.28;6204701;23;20172;-88
2023/07/15 10:59:09;;;;;;;15.20;6.18;;;;;;;-142.57;41.02;115900.28;6228409;23;20079;-88
2023/07/15 11:01:35;;;;;;;13.27;5.78;;;;;;;-142.57;41.27;115900.28;6224636;23;20012;-88